sensor_id;sensor_type;location;lat;lon;timestamp;pressure;altitude;pressure_sealevel;temperature;humidity
22261;BME280;11299;43.202;27.920;2022-08-01T00:00:19;100706.94;;;21.23;100.00
22261;BME280;11299;43.202;27.920;2022-08-01T00:02:45;100693.75;;;21.01;100.00
22261;BME280;11299;43.202;27.920;2022-08-01T00:05:10;100524.88;;;20.19;100.00
22261;BME280;11299;43.202;27.920;2022-08-01T00:07:37;100697.25;;;21.07;100.00
22261;BME280;11299;43.202;27.920;2022-08-01T00:10:07;100666.72;;;20.92;100.00
22261;BME280;11299;43.202;27.920;2022-08-01T00:12:33;100669.41;;;20.97;100.00
22261;BME280;11299;43.202;27.920;2022-08-01T00:14:59;100668.66;;;20.83;100.00
22261;BME280;11299;43.202;27.920;2022-08-01T00:17:24;100663.41;;;20.90;100.00
22261;BME280;11299;43.202;27.920;2022-08-01T00:19:50;100667.38;;;20.89;100.00
22261;BME280;11299;43.202;27.920;2022-08-01T00:22:16;100621.59;;;20.57;100.00
22261;BME280;11299;43.202;27.920;2022-08-01T00:24:41;100670.00;;;20.85;100.00
22261;BME280;11299;43.202;27.920;2022-08-01T00:27:07;100634.84;;;20.66;100.00
22261;BME280;11299;43.202;27.920;2022-08-01T00:29:32;100559.75;;;20.18;100.00
22261;BME280;11299;43.202;27.920;2022-08-01T00:31:58;100511.97;;;19.88;100.00
22261;BME280;11299;43.202;27.920;2022-08-01T00:34:23;100604.00;;;20.43;100.00
22261;BME280;11299;43.202;27.920;2022-08-01T00:36:49;100670.00;;;20.85;100.00
22261;BME280;11299;43.202;27.920;2022-08-01T00:39:14;100669.31;;;20.80;100.00
22261;BME280;11299;43.202;27.920;2022-08-01T00:41:40;100626.19;;;20.53;100.00
22261;BME280;11299;43.202;27.920;2022-08-01T00:44:06;100655.56;;;20.78;100.00
22261;BME280;11299;43.202;27.920;2022-08-01T00:46:32;100647.88;;;20.61;100.00
22261;BME280;11299;43.202;27.920;2022-08-01T00:48:59;100553.03;;;20.06;100.00
22261;BME280;11299;43.202;27.920;2022-08-01T00:51:26;100656.69;;;20.69;100.00
22261;BME280;11299;43.202;27.920;2022-08-01T00:53:52;100662.28;;;20.69;100.00
22261;BME280;11299;43.202;27.920;2022-08-01T00:56:20;100663.13;;;20.69;100.00
22261;BME280;11299;43.202;27.920;2022-08-01T00:58:46;100665.09;;;20.69;100.00
22261;BME280;11299;43.202;27.920;2022-08-01T01:01:11;100666.53;;;20.57;100.00
22261;BME280;11299;43.202;27.920;2022-08-01T01:03:37;100615.88;;;20.40;100.00
22261;BME280;11299;43.202;27.920;2022-08-01T01:08:58;100667.56;;;20.61;100.00
22261;BME280;11299;43.202;27.920;2022-08-01T01:11:29;100660.63;;;20.59;100.00
22261;BME280;11299;43.202;27.920;2022-08-01T01:14:04;100644.53;;;20.51;100.00
22261;BME280;11299;43.202;27.920;2022-08-01T01:16:33;100608.69;;;20.26;100.00
22261;BME280;11299;43.202;27.920;2022-08-01T01:19:03;100623.78;;;20.38;100.00
22261;BME280;11299;43.202;27.920;2022-08-01T01:24:42;100533.19;;;19.80;100.00
22261;BME280;11299;43.202;27.920;2022-08-01T01:29:43;100587.84;;;20.05;100.00
22261;BME280;11299;43.202;27.920;2022-08-01T01:32:14;100656.34;;;20.39;100.00
22261;BME280;11299;43.202;27.920;2022-08-01T01:34:44;100652.34;;;20.32;100.00
22261;BME280;11299;43.202;27.920;2022-08-01T01:37:15;100685.38;;;20.35;100.00
22261;BME280;11299;43.202;27.920;2022-08-01T01:39:42;100600.06;;;20.00;100.00
22261;BME280;11299;43.202;27.920;2022-08-01T01:42:09;100573.88;;;19.91;100.00
22261;BME280;11299;43.202;27.920;2022-08-01T01:44:37;100613.97;;;20.05;100.00
22261;BME280;11299;43.202;27.920;2022-08-01T01:47:04;100592.34;;;20.06;100.00
22261;BME280;11299;43.202;27.920;2022-08-01T01:49:31;100648.44;;;20.41;100.00
22261;BME280;11299;43.202;27.920;2022-08-01T01:51:59;100612.19;;;20.31;100.00
22261;BME280;11299;43.202;27.920;2022-08-01T01:54:31;100634.75;;;20.48;100.00
22261;BME280;11299;43.202;27.920;2022-08-01T01:56:59;100604.91;;;20.30;100.00
22261;BME280;11299;43.202;27.920;2022-08-01T01:59:28;100596.31;;;20.27;100.00
22261;BME280;11299;43.202;27.920;2022-08-01T02:01:58;100626.47;;;20.43;100.00
22261;BME280;11299;43.202;27.920;2022-08-01T02:04:26;100598.28;;;20.26;100.00
22261;BME280;11299;43.202;27.920;2022-08-01T02:06:54;100577.31;;;20.10;100.00
22261;BME280;11299;43.202;27.920;2022-08-01T02:09:21;100594.13;;;20.24;100.00
22261;BME280;11299;43.202;27.920;2022-08-01T02:11:49;100603.25;;;20.29;100.00
22261;BME280;11299;43.202;27.920;2022-08-01T02:14:17;100594.56;;;20.17;100.00
22261;BME280;11299;43.202;27.920;2022-08-01T02:16:47;100611.72;;;20.16;100.00
22261;BME280;11299;43.202;27.920;2022-08-01T02:19:14;100509.38;;;19.69;100.00
22261;BME280;11299;43.202;27.920;2022-08-01T02:21:54;100567.38;;;20.04;100.00
22261;BME280;11299;43.202;27.920;2022-08-01T02:26:49;100510.41;;;19.51;100.00
22261;BME280;11299;43.202;27.920;2022-08-01T02:32:30;100598.13;;;20.09;100.00
22261;BME280;11299;43.202;27.920;2022-08-01T02:34:57;100583.72;;;20.02;100.00
22261;BME280;11299;43.202;27.920;2022-08-01T02:37:26;100598.13;;;20.09;100.00
22261;BME280;11299;43.202;27.920;2022-08-01T02:39:54;100585.88;;;20.05;100.00
22261;BME280;11299;43.202;27.920;2022-08-01T02:42:22;100577.03;;;19.90;100.00
22261;BME280;11299;43.202;27.920;2022-08-01T02:44:49;100524.03;;;19.66;100.00
22261;BME280;11299;43.202;27.920;2022-08-01T02:47:18;100586.34;;;19.41;100.00
22261;BME280;11299;43.202;27.920;2022-08-01T02:49:46;100574.28;;;19.76;100.00
22261;BME280;11299;43.202;27.920;2022-08-01T02:52:14;100589.28;;;19.94;100.00
22261;BME280;11299;43.202;27.920;2022-08-01T02:54:44;100612.94;;;20.01;100.00
22261;BME280;11299;43.202;27.920;2022-08-01T02:57:12;100599.03;;;19.96;100.00
22261;BME280;11299;43.202;27.920;2022-08-01T02:59:39;100559.81;;;19.83;100.00
22261;BME280;11299;43.202;27.920;2022-08-01T03:02:06;100463.63;;;19.24;100.00
22261;BME280;11299;43.202;27.920;2022-08-01T03:04:35;100591.00;;;20.03;100.00
22261;BME280;11299;43.202;27.920;2022-08-01T03:07:04;100545.97;;;19.64;100.00
22261;BME280;11299;43.202;27.920;2022-08-01T03:09:35;100622.72;;;20.04;100.00
22261;BME280;11299;43.202;27.920;2022-08-01T03:12:04;100593.44;;;19.96;100.00
22261;BME280;11299;43.202;27.920;2022-08-01T03:14:35;100582.63;;;19.90;100.00
22261;BME280;11299;43.202;27.920;2022-08-01T03:17:02;100475.25;;;19.18;100.00
22261;BME280;11299;43.202;27.920;2022-08-01T03:19:30;100516.19;;;19.19;100.00
22261;BME280;11299;43.202;27.920;2022-08-01T03:21:57;100590.94;;;19.95;100.00
22261;BME280;11299;43.202;27.920;2022-08-01T03:24:25;100540.47;;;19.59;100.00
22261;BME280;11299;43.202;27.920;2022-08-01T03:26:52;100579.50;;;19.91;100.00
22261;BME280;11299;43.202;27.920;2022-08-01T03:29:22;100436.53;;;18.98;100.00
22261;BME280;11299;43.202;27.920;2022-08-01T03:31:50;100582.06;;;19.79;100.00
22261;BME280;11299;43.202;27.920;2022-08-01T03:34:16;100604.34;;;19.98;100.00
22261;BME280;11299;43.202;27.920;2022-08-01T03:36:48;100621.50;;;19.96;100.00
22261;BME280;11299;43.202;27.920;2022-08-01T03:39:16;100576.84;;;19.64;100.00
22261;BME280;11299;43.202;27.920;2022-08-01T03:41:48;100421.19;;;18.82;100.00
22261;BME280;11299;43.202;27.920;2022-08-01T03:44:20;100485.47;;;19.00;100.00
22261;BME280;11299;43.202;27.920;2022-08-01T03:46:52;100477.13;;;19.22;100.00
22261;BME280;11299;43.202;27.920;2022-08-01T03:49:42;100598.38;;;19.99;100.00
22261;BME280;11299;43.202;27.920;2022-08-01T03:52:10;100580.81;;;19.85;100.00
22261;BME280;11299;43.202;27.920;2022-08-01T03:54:40;100528.50;;;19.67;100.00
22261;BME280;11299;43.202;27.920;2022-08-01T03:57:08;100577.59;;;20.00;100.00
22261;BME280;11299;43.202;27.920;2022-08-01T03:59:35;100551.56;;;19.86;100.00
22261;BME280;11299;43.202;27.920;2022-08-01T04:02:02;100556.03;;;19.87;100.00
22261;BME280;11299;43.202;27.920;2022-08-01T04:04:28;100596.47;;;20.08;100.00
22261;BME280;11299;43.202;27.920;2022-08-01T04:06:53;100549.13;;;19.93;100.00
22261;BME280;11299;43.202;27.920;2022-08-01T04:09:20;100578.75;;;20.21;100.00
22261;BME280;11299;43.202;27.920;2022-08-01T04:11:47;100552.56;;;20.12;100.00
22261;BME280;11299;43.202;27.920;2022-08-01T04:14:12;100594.06;;;20.37;100.00
22261;BME280;11299;43.202;27.920;2022-08-01T04:16:38;100585.47;;;20.42;100.00
22261;BME280;11299;43.202;27.920;2022-08-01T04:19:04;100582.16;;;20.40;100.00
22261;BME280;11299;43.202;27.920;2022-08-01T04:21:34;100582.22;;;20.49;100.00
22261;BME280;11299;43.202;27.920;2022-08-01T04:24:08;100575.25;;;20.46;100.00
22261;BME280;11299;43.202;27.920;2022-08-01T04:26:37;100545.47;;;20.37;100.00
22261;BME280;11299;43.202;27.920;2022-08-01T04:29:04;100495.78;;;20.15;100.00
22261;BME280;11299;43.202;27.920;2022-08-01T04:31:32;100435.66;;;19.77;100.00
22261;BME280;11299;43.202;27.920;2022-08-01T04:33:59;100464.41;;;20.13;100.00
22261;BME280;11299;43.202;27.920;2022-08-01T04:36:27;100518.44;;;20.49;100.00
22261;BME280;11299;43.202;27.920;2022-08-01T04:38:57;100541.84;;;20.76;100.00
22261;BME280;11299;43.202;27.920;2022-08-01T04:41:23;100580.44;;;21.01;100.00
22261;BME280;11299;43.202;27.920;2022-08-01T04:43:50;100471.47;;;20.41;100.00
22261;BME280;11299;43.202;27.920;2022-08-01T04:46:17;100555.00;;;21.06;100.00
22261;BME280;11299;43.202;27.920;2022-08-01T04:48:44;100534.53;;;21.14;100.00
22261;BME280;11299;43.202;27.920;2022-08-01T04:51:28;100551.59;;;21.43;100.00
22261;BME280;11299;43.202;27.920;2022-08-01T04:54:13;100539.00;;;21.40;100.00
22261;BME280;11299;43.202;27.920;2022-08-01T04:56:38;100519.00;;;21.42;100.00
22261;BME280;11299;43.202;27.920;2022-08-01T04:59:04;100554.72;;;21.67;100.00
22261;BME280;11299;43.202;27.920;2022-08-01T05:01:49;100427.00;;;21.17;100.00
22261;BME280;11299;43.202;27.920;2022-08-01T05:04:15;100564.34;;;22.00;100.00
22261;BME280;11299;43.202;27.920;2022-08-01T05:06:41;100560.84;;;22.12;100.00
22261;BME280;11299;43.202;27.920;2022-08-01T05:09:06;100535.66;;;22.07;100.00
22261;BME280;11299;43.202;27.920;2022-08-01T05:11:32;100434.56;;;21.59;100.00
22261;BME280;11299;43.202;27.920;2022-08-01T05:13:57;100407.28;;;21.51;100.00
22261;BME280;11299;43.202;27.920;2022-08-01T05:16:23;100566.22;;;22.51;100.00
22261;BME280;11299;43.202;27.920;2022-08-01T05:18:48;100554.59;;;22.53;100.00
22261;BME280;11299;43.202;27.920;2022-08-01T05:21:14;100530.06;;;22.44;100.00
22261;BME280;11299;43.202;27.920;2022-08-01T05:23:39;100518.66;;;22.41;100.00
22261;BME280;11299;43.202;27.920;2022-08-01T05:26:05;100557.03;;;22.71;100.00
22261;BME280;11299;43.202;27.920;2022-08-01T05:28:30;100482.16;;;22.15;100.00
22261;BME280;11299;43.202;27.920;2022-08-01T05:30:56;100551.56;;;22.75;100.00
22261;BME280;11299;43.202;27.920;2022-08-01T05:33:22;100503.56;;;22.45;100.00
22261;BME280;11299;43.202;27.920;2022-08-01T05:35:47;100319.31;;;20.91;100.00
22261;BME280;11299;43.202;27.920;2022-08-01T05:38:13;100544.25;;;22.74;100.00
22261;BME280;11299;43.202;27.920;2022-08-01T05:40:38;100595.63;;;22.88;100.00
22261;BME280;11299;43.202;27.920;2022-08-01T05:43:04;100549.94;;;22.94;100.00
22261;BME280;11299;43.202;27.920;2022-08-01T05:45:29;100583.94;;;22.98;100.00
22261;BME280;11299;43.202;27.920;2022-08-01T05:47:55;100498.09;;;22.58;100.00
22261;BME280;11299;43.202;27.920;2022-08-01T05:50:20;100511.19;;;22.83;100.00
22261;BME280;11299;43.202;27.920;2022-08-01T05:52:46;100502.84;;;22.95;100.00
22261;BME280;11299;43.202;27.920;2022-08-01T05:55:12;100532.75;;;23.16;100.00
22261;BME280;11299;43.202;27.920;2022-08-01T05:57:38;100510.16;;;23.16;100.00
22261;BME280;11299;43.202;27.920;2022-08-01T06:00:04;100561.50;;;23.39;100.00
22261;BME280;11299;43.202;27.920;2022-08-01T06:02:29;100556.50;;;23.36;100.00
22261;BME280;11299;43.202;27.920;2022-08-01T06:04:55;100549.09;;;23.52;100.00
22261;BME280;11299;43.202;27.920;2022-08-01T06:07:20;100548.63;;;23.50;100.00
22261;BME280;11299;43.202;27.920;2022-08-01T06:09:46;100506.41;;;23.33;100.00
22261;BME280;11299;43.202;27.920;2022-08-01T06:12:11;100445.13;;;23.13;100.00
22261;BME280;11299;43.202;27.920;2022-08-01T06:14:37;100488.63;;;23.53;99.40
22261;BME280;11299;43.202;27.920;2022-08-01T06:17:03;100502.81;;;23.65;98.26
22261;BME280;11299;43.202;27.920;2022-08-01T06:19:29;100528.28;;;23.77;97.17
22261;BME280;11299;43.202;27.920;2022-08-01T06:21:55;100523.16;;;23.91;98.19
22261;BME280;11299;43.202;27.920;2022-08-01T06:24:22;100507.84;;;23.92;94.92
22261;BME280;11299;43.202;27.920;2022-08-01T06:26:55;100513.03;;;24.11;95.30
22261;BME280;11299;43.202;27.920;2022-08-01T06:29:22;100532.25;;;24.30;95.31
22261;BME280;11299;43.202;27.920;2022-08-01T06:31:49;100518.13;;;24.30;93.88
22261;BME280;11299;43.202;27.920;2022-08-01T06:34:15;100524.13;;;24.40;91.06
22261;BME280;11299;43.202;27.920;2022-08-01T06:36:43;100531.56;;;24.45;89.74
22261;BME280;11299;43.202;27.920;2022-08-01T06:39:13;100506.34;;;24.40;90.36
22261;BME280;11299;43.202;27.920;2022-08-01T06:41:40;100487.88;;;24.42;89.06
22261;BME280;11299;43.202;27.920;2022-08-01T06:44:07;100503.53;;;24.40;88.62
22261;BME280;11299;43.202;27.920;2022-08-01T06:46:33;100496.09;;;24.47;88.12
22261;BME280;11299;43.202;27.920;2022-08-01T06:48:59;100527.84;;;24.89;86.43
22261;BME280;11299;43.202;27.920;2022-08-01T06:51:25;100527.06;;;24.88;84.16
22261;BME280;11299;43.202;27.920;2022-08-01T06:53:50;100504.06;;;24.90;83.58
22261;BME280;11299;43.202;27.920;2022-08-01T06:56:16;100525.50;;;25.03;83.17
22261;BME280;11299;43.202;27.920;2022-08-01T06:58:41;100498.28;;;24.86;81.31
22261;BME280;11299;43.202;27.920;2022-08-01T07:01:07;100415.91;;;24.40;80.52
22261;BME280;11299;43.202;27.920;2022-08-01T07:03:36;100516.88;;;25.11;82.65
22261;BME280;11299;43.202;27.920;2022-08-01T07:06:02;100364.81;;;24.45;79.10
22261;BME280;11299;43.202;27.920;2022-08-01T07:08:28;100516.59;;;25.29;77.82
22261;BME280;11299;43.202;27.920;2022-08-01T07:10:54;100475.72;;;25.02;77.55
22261;BME280;11299;43.202;27.920;2022-08-01T07:13:19;100518.16;;;25.26;77.00
22261;BME280;11299;43.202;27.920;2022-08-01T07:15:50;100509.06;;;25.33;76.74
22261;BME280;11299;43.202;27.920;2022-08-01T07:18:17;100514.38;;;25.46;75.59
22261;BME280;11299;43.202;27.920;2022-08-01T07:20:43;100513.41;;;25.54;76.18
22261;BME280;11299;43.202;27.920;2022-08-01T07:23:14;100487.44;;;25.52;76.35
22261;BME280;11299;43.202;27.920;2022-08-01T07:25:39;100500.09;;;25.70;75.66
22261;BME280;11299;43.202;27.920;2022-08-01T07:28:05;100500.03;;;25.94;76.29
22261;BME280;11299;43.202;27.920;2022-08-01T07:30:31;100510.16;;;25.95;73.42
22261;BME280;11299;43.202;27.920;2022-08-01T07:32:57;100529.78;;;26.16;71.70
22261;BME280;11299;43.202;27.920;2022-08-01T07:35:22;100490.41;;;25.99;71.36
22261;BME280;11299;43.202;27.920;2022-08-01T07:37:48;100518.13;;;26.33;72.17
22261;BME280;11299;43.202;27.920;2022-08-01T07:40:16;100529.19;;;26.54;71.76
22261;BME280;11299;43.202;27.920;2022-08-01T07:42:42;100536.22;;;26.72;68.26
22261;BME280;11299;43.202;27.920;2022-08-01T07:45:11;100527.41;;;26.77;68.65
22261;BME280;11299;43.202;27.920;2022-08-01T07:47:36;100533.72;;;26.86;66.55
22261;BME280;11299;43.202;27.920;2022-08-01T07:50:03;100448.16;;;26.53;65.18
22261;BME280;11299;43.202;27.920;2022-08-01T07:52:29;100529.00;;;27.09;66.15
22261;BME280;11299;43.202;27.920;2022-08-01T07:54:56;100464.59;;;26.94;63.54
22261;BME280;11299;43.202;27.920;2022-08-01T07:57:23;100496.88;;;27.05;63.09
22261;BME280;11299;43.202;27.920;2022-08-01T07:59:50;100527.63;;;27.19;62.64
22261;BME280;11299;43.202;27.920;2022-08-01T08:02:17;100404.78;;;26.37;62.53
22261;BME280;11299;43.202;27.920;2022-08-01T08:04:42;100525.91;;;27.49;63.92
22261;BME280;11299;43.202;27.920;2022-08-01T08:07:08;100534.50;;;27.52;61.06
22261;BME280;11299;43.202;27.920;2022-08-01T08:09:34;100531.06;;;27.43;62.37
22261;BME280;11299;43.202;27.920;2022-08-01T08:11:59;100472.28;;;27.28;62.59
22261;BME280;11299;43.202;27.920;2022-08-01T08:14:25;100534.31;;;27.80;61.24
22261;BME280;11299;43.202;27.920;2022-08-01T08:16:51;100504.09;;;27.53;58.02
22261;BME280;11299;43.202;27.920;2022-08-01T08:19:16;100531.31;;;27.73;58.39
22261;BME280;11299;43.202;27.920;2022-08-01T08:21:42;100458.09;;;27.28;59.06
22261;BME280;11299;43.202;27.920;2022-08-01T08:24:09;100427.84;;;27.01;58.73
22261;BME280;11299;43.202;27.920;2022-08-01T08:26:44;100515.09;;;27.73;58.42
22261;BME280;11299;43.202;27.920;2022-08-01T08:29:10;100539.03;;;28.11;58.50
22261;BME280;11299;43.202;27.920;2022-08-01T08:31:36;100450.44;;;27.67;57.01
22261;BME280;11299;43.202;27.920;2022-08-01T08:34:02;100552.25;;;28.22;56.47
22261;BME280;11299;43.202;27.920;2022-08-01T08:36:31;100547.09;;;28.28;56.78
22261;BME280;11299;43.202;27.920;2022-08-01T08:39:00;100543.63;;;28.38;55.97
22261;BME280;11299;43.202;27.920;2022-08-01T08:41:26;100523.88;;;28.26;54.51
22261;BME280;11299;43.202;27.920;2022-08-01T08:43:52;100508.03;;;28.25;54.78
22261;BME280;11299;43.202;27.920;2022-08-01T08:46:18;100537.34;;;28.48;54.99
22261;BME280;11299;43.202;27.920;2022-08-01T08:48:45;100547.41;;;28.64;55.21
22261;BME280;11299;43.202;27.920;2022-08-01T08:51:16;100556.38;;;28.89;56.18
22261;BME280;11299;43.202;27.920;2022-08-01T08:54:06;100522.28;;;28.93;54.75
22261;BME280;11299;43.202;27.920;2022-08-01T08:56:36;100522.47;;;29.03;52.49
22261;BME280;11299;43.202;27.920;2022-08-01T08:59:03;100521.69;;;29.06;54.93
22261;BME280;11299;43.202;27.920;2022-08-01T09:01:30;100553.59;;;29.41;55.07
22261;BME280;11299;43.202;27.920;2022-08-01T09:03:58;100547.00;;;29.63;52.08
22261;BME280;11299;43.202;27.920;2022-08-01T09:06:25;100507.72;;;29.50;52.80
22261;BME280;11299;43.202;27.920;2022-08-01T09:08:51;100526.72;;;29.68;52.81
22261;BME280;11299;43.202;27.920;2022-08-01T09:11:17;100541.44;;;29.71;51.20
22261;BME280;11299;43.202;27.920;2022-08-01T09:14:11;100533.78;;;29.78;50.94
22261;BME280;11299;43.202;27.920;2022-08-01T09:16:43;100522.31;;;29.71;49.71
22261;BME280;11299;43.202;27.920;2022-08-01T09:19:16;100550.41;;;29.73;49.67
22261;BME280;11299;43.202;27.920;2022-08-01T09:21:59;100504.47;;;29.78;49.57
22261;BME280;11299;43.202;27.920;2022-08-01T09:24:27;100515.06;;;30.14;49.77
22261;BME280;11299;43.202;27.920;2022-08-01T09:26:53;100532.56;;;30.45;49.77
22261;BME280;11299;43.202;27.920;2022-08-01T09:29:28;100534.47;;;30.75;48.64
22261;BME280;11299;43.202;27.920;2022-08-01T09:31:55;100488.50;;;30.39;45.80
22261;BME280;11299;43.202;27.920;2022-08-01T09:34:27;100416.22;;;29.25;45.74
22261;BME280;11299;43.202;27.920;2022-08-01T09:36:57;100484.38;;;30.37;47.68
22261;BME280;11299;43.202;27.920;2022-08-01T09:39:31;100526.22;;;30.63;46.65
22261;BME280;11299;43.202;27.920;2022-08-01T09:42:00;100503.47;;;30.73;45.38
22261;BME280;11299;43.202;27.920;2022-08-01T09:44:40;100497.91;;;30.87;45.83
22261;BME280;11299;43.202;27.920;2022-08-01T09:47:06;100497.31;;;31.15;46.73
22261;BME280;11299;43.202;27.920;2022-08-01T09:49:34;100498.09;;;31.12;44.16
22261;BME280;11299;43.202;27.920;2022-08-01T09:52:16;100459.66;;;31.02;43.89
22261;BME280;11299;43.202;27.920;2022-08-01T09:54:51;100521.03;;;31.22;44.24
22261;BME280;11299;43.202;27.920;2022-08-01T09:57:18;100515.97;;;31.60;44.70
22261;BME280;11299;43.202;27.920;2022-08-01T09:59:47;100349.31;;;30.73;43.29
22261;BME280;11299;43.202;27.920;2022-08-01T10:02:25;100508.41;;;31.99;41.68
22261;BME280;11299;43.202;27.920;2022-08-01T10:04:53;100514.53;;;32.01;43.71
22261;BME280;11299;43.202;27.920;2022-08-01T10:07:20;100526.06;;;32.29;41.94
22261;BME280;11299;43.202;27.920;2022-08-01T10:09:46;100409.34;;;31.48;42.02
22261;BME280;11299;43.202;27.920;2022-08-01T10:12:19;100492.06;;;31.96;40.73
22261;BME280;11299;43.202;27.920;2022-08-01T10:14:50;100529.81;;;32.40;40.83
22261;BME280;11299;43.202;27.920;2022-08-01T10:17:25;100526.19;;;32.71;40.04
22261;BME280;11299;43.202;27.920;2022-08-01T10:19:56;100522.47;;;32.74;39.54
22261;BME280;11299;43.202;27.920;2022-08-01T10:22:27;100485.66;;;32.73;39.85
22261;BME280;11299;43.202;27.920;2022-08-01T10:24:56;100520.88;;;32.87;38.67
22261;BME280;11299;43.202;27.920;2022-08-01T10:27:23;100494.69;;;32.99;39.12
22261;BME280;11299;43.202;27.920;2022-08-01T10:29:55;100372.31;;;32.82;39.42
22261;BME280;11299;43.202;27.920;2022-08-01T10:32:22;100513.31;;;33.92;39.32
22261;BME280;11299;43.202;27.920;2022-08-01T10:34:49;100508.94;;;33.56;38.29
22261;BME280;11299;43.202;27.920;2022-08-01T10:37:15;100222.31;;;31.49;38.31
22261;BME280;11299;43.202;27.920;2022-08-01T10:39:42;100511.06;;;33.16;38.39
22261;BME280;11299;43.202;27.920;2022-08-01T10:42:10;100477.91;;;32.45;38.64
22261;BME280;11299;43.202;27.920;2022-08-01T10:44:38;100511.44;;;32.62;39.52
22261;BME280;11299;43.202;27.920;2022-08-01T10:47:10;100484.84;;;32.86;39.81
22261;BME280;11299;43.202;27.920;2022-08-01T10:52:27;100488.97;;;32.82;39.82
22261;BME280;11299;43.202;27.920;2022-08-01T10:55:19;100502.84;;;32.66;38.96
22261;BME280;11299;43.202;27.920;2022-08-01T10:57:45;100521.22;;;32.40;39.24
22261;BME280;11299;43.202;27.920;2022-08-01T11:00:19;100496.19;;;32.09;41.36
22261;BME280;11299;43.202;27.920;2022-08-01T11:02:58;100463.47;;;32.10;40.26
22261;BME280;11299;43.202;27.920;2022-08-01T11:05:26;100488.91;;;32.39;39.93
22261;BME280;11299;43.202;27.920;2022-08-01T11:07:53;100503.66;;;32.49;39.12
22261;BME280;11299;43.202;27.920;2022-08-01T11:10:40;100400.78;;;31.59;40.64
22261;BME280;11299;43.202;27.920;2022-08-01T11:13:09;100519.22;;;32.51;39.17
22261;BME280;11299;43.202;27.920;2022-08-01T11:15:37;100502.84;;;32.73;39.75
22261;BME280;11299;43.202;27.920;2022-08-01T11:20:57;100497.97;;;33.05;38.82
22261;BME280;11299;43.202;27.920;2022-08-01T11:23:24;100484.03;;;33.21;38.82
22261;BME280;11299;43.202;27.920;2022-08-01T11:30:53;100347.84;;;32.11;39.55
22261;BME280;11299;43.202;27.920;2022-08-01T11:38:39;100445.59;;;32.62;38.36
22261;BME280;11299;43.202;27.920;2022-08-01T11:41:13;100449.66;;;32.93;38.16
22261;BME280;11299;43.202;27.920;2022-08-01T11:44:03;100511.81;;;33.56;38.54
22261;BME280;11299;43.202;27.920;2022-08-01T11:54:42;100483.13;;;33.56;37.55
22261;BME280;11299;43.202;27.920;2022-08-01T11:57:13;100483.94;;;33.67;36.74
22261;BME280;11299;43.202;27.920;2022-08-01T11:59:41;100497.06;;;33.43;36.60
22261;BME280;11299;43.202;27.920;2022-08-01T12:02:19;100423.94;;;32.65;37.30
22261;BME280;11299;43.202;27.920;2022-08-01T12:04:49;100382.16;;;32.21;37.82
22261;BME280;11299;43.202;27.920;2022-08-01T12:07:16;100489.38;;;32.73;38.35
22261;BME280;11299;43.202;27.920;2022-08-01T12:09:42;100479.53;;;32.88;38.25
22261;BME280;11299;43.202;27.920;2022-08-01T12:12:09;100412.47;;;32.54;37.61
22261;BME280;11299;43.202;27.920;2022-08-01T12:14:35;100474.22;;;32.90;37.92
22261;BME280;11299;43.202;27.920;2022-08-01T12:17:01;100495.91;;;32.84;37.76
22261;BME280;11299;43.202;27.920;2022-08-01T12:19:27;100474.22;;;32.97;37.43
22261;BME280;11299;43.202;27.920;2022-08-01T12:24:37;100463.19;;;32.71;37.13
22261;BME280;11299;43.202;27.920;2022-08-01T12:27:04;100438.22;;;32.51;37.71
22261;BME280;11299;43.202;27.920;2022-08-01T12:29:37;100476.69;;;32.95;37.62
22261;BME280;11299;43.202;27.920;2022-08-01T12:32:03;100466.84;;;33.14;37.98
22261;BME280;11299;43.202;27.920;2022-08-01T12:34:30;100473.31;;;33.43;38.51
22261;BME280;11299;43.202;27.920;2022-08-01T12:37:00;100442.63;;;33.36;37.20
22261;BME280;11299;43.202;27.920;2022-08-01T12:39:34;100437.31;;;33.27;37.36
22261;BME280;11299;43.202;27.920;2022-08-01T12:42:00;100371.50;;;32.78;37.75
22261;BME280;11299;43.202;27.920;2022-08-01T12:44:27;100429.16;;;33.22;38.12
22261;BME280;11299;43.202;27.920;2022-08-01T12:46:55;100424.25;;;33.12;37.19
22261;BME280;11299;43.202;27.920;2022-08-01T12:49:22;100429.19;;;32.94;37.04
22261;BME280;11299;43.202;27.920;2022-08-01T12:51:49;100419.31;;;33.23;36.89
22261;BME280;11299;43.202;27.920;2022-08-01T12:54:15;100446.25;;;33.65;36.50
22261;BME280;11299;43.202;27.920;2022-08-01T12:56:41;100408.91;;;33.72;37.22
22261;BME280;11299;43.202;27.920;2022-08-01T12:59:20;100394.94;;;33.81;44.67
22261;BME280;11299;43.202;27.920;2022-08-01T13:01:45;100424.97;;;34.31;46.67
22261;BME280;11299;43.202;27.920;2022-08-01T13:04:12;100439.00;;;34.73;43.76
22261;BME280;11299;43.202;27.920;2022-08-01T13:06:37;100441.63;;;35.01;43.77
22261;BME280;11299;43.202;27.920;2022-08-01T13:09:10;100420.66;;;35.04;43.09
22261;BME280;11299;43.202;27.920;2022-08-01T13:11:37;100410.00;;;35.39;41.30
22261;BME280;11299;43.202;27.920;2022-08-01T13:14:03;100407.91;;;35.43;42.94
22261;BME280;11299;43.202;27.920;2022-08-01T13:16:28;100354.22;;;34.99;44.13
22261;BME280;11299;43.202;27.920;2022-08-01T13:18:56;100388.53;;;35.13;45.29
22261;BME280;11299;43.202;27.920;2022-08-01T13:21:26;100429.34;;;35.35;47.50